Etusivu
METAR-TAF:

METAR-TAF

Lentoasemat :

Valence, Ranska

Leveyspiiri: 44-54-58N, Pituuspiiri: 4-58-06E, korkeus merenpinnasta: 160 m

Tämänhetkinen sää

Tämä raportti tehtiin 34 minuuttia sitten, kello 14.30 UTC
Tuuli 4 kn etelästä, vaihdellen idän ja lännen/lounaan välillä
Lämpötila 21°C
Kosteus 64%
Ilmanpaine 1012 hPa
Näkyvyys 10 km tai enemmän
Hajanaisia pilviä 7600 ft:n korkeudessa

METAR: LFLU 151430Z AUTO 19004KT 100V240 9999 SCT076 21/14 Q1012

Aika: 17:04 (15:04 UTC)


TAF: puuttuu

Säähavainnot ja -ennusteet yli 4000 lentoasemalta (METAR- ja TAF-raportit).

Käytössä olevat sääasemat on merkitty karttaan keltaisilla ja punaisilla pisteillä.

Aseta hiiri pisteen päälle nähdäksesi sääaseman nimen.

Klikkaa sitten nähdäksesi säähavainnot ja -ennusteet.

Kartan vaihtaminen: klikkaa mustalla rastilla varustettuja vihreitä pisteitä, niin voit zoomata sisään; viivalla varustettua vihreää pistettä, niin voit zoomata ulos tai vihreitä nuolia, niin pääset viereisille kartoille.


METAR-TAF: